sensor_id;sensor_type;location;lat;lon;timestamp;P1;durP1;ratioP1;P2;durP2;ratioP2
1370;SDS011;14306;49.942;11.570;2022-12-18T00:00:07;35.70;;;17.25;;
1370;SDS011;14306;49.942;11.570;2022-12-18T00:02:35;35.30;;;16.67;;
1370;SDS011;14306;49.942;11.570;2022-12-18T00:05:05;31.70;;;15.32;;
1370;SDS011;14306;49.942;11.570;2022-12-18T00:07:35;44.42;;;19.35;;
1370;SDS011;14306;49.942;11.570;2022-12-18T00:10:03;41.03;;;17.88;;
1370;SDS011;14306;49.942;11.570;2022-12-18T00:12:32;36.00;;;16.38;;
1370;SDS011;14306;49.942;11.570;2022-12-18T00:15:00;28.00;;;16.17;;
1370;SDS011;14306;49.942;11.570;2022-12-18T00:17:30;30.17;;;14.68;;
1370;SDS011;14306;49.942;11.570;2022-12-18T00:19:58;33.65;;;16.80;;
1370;SDS011;14306;49.942;11.570;2022-12-18T00:22:26;37.55;;;15.82;;
1370;SDS011;14306;49.942;11.570;2022-12-18T00:24:54;35.00;;;15.10;;
1370;SDS011;14306;49.942;11.570;2022-12-18T00:27:23;31.02;;;15.55;;
1370;SDS011;14306;49.942;11.570;2022-12-18T00:29:51;32.20;;;15.32;;
1370;SDS011;14306;49.942;11.570;2022-12-18T00:32:19;34.22;;;15.65;;
1370;SDS011;14306;49.942;11.570;2022-12-18T00:34:49;32.60;;;15.85;;
1370;SDS011;14306;49.942;11.570;2022-12-18T00:37:16;33.15;;;15.82;;
1370;SDS011;14306;49.942;11.570;2022-12-18T00:39:47;35.85;;;15.98;;
1370;SDS011;14306;49.942;11.570;2022-12-18T00:42:16;30.67;;;15.35;;
1370;SDS011;14306;49.942;11.570;2022-12-18T00:45:04;33.15;;;15.48;;
1370;SDS011;14306;49.942;11.570;2022-12-18T00:47:38;28.70;;;14.07;;
1370;SDS011;14306;49.942;11.570;2022-12-18T00:50:09;30.65;;;13.63;;
1370;SDS011;14306;49.942;11.570;2022-12-18T00:52:39;31.33;;;15.25;;
1370;SDS011;14306;49.942;11.570;2022-12-18T00:55:07;27.52;;;14.23;;
1370;SDS011;14306;49.942;11.570;2022-12-18T00:57:35;32.55;;;15.23;;
1370;SDS011;14306;49.942;11.570;2022-12-18T01:00:06;32.75;;;15.23;;
1370;SDS011;14306;49.942;11.570;2022-12-18T01:02:37;32.83;;;14.57;;
1370;SDS011;14306;49.942;11.570;2022-12-18T01:05:06;33.50;;;16.63;;
1370;SDS011;14306;49.942;11.570;2022-12-18T01:07:36;35.83;;;17.55;;
1370;SDS011;14306;49.942;11.570;2022-12-18T01:10:04;39.22;;;16.00;;
1370;SDS011;14306;49.942;11.570;2022-12-18T01:12:35;35.08;;;17.88;;
1370;SDS011;14306;49.942;11.570;2022-12-18T01:15:03;36.67;;;16.15;;
1370;SDS011;14306;49.942;11.570;2022-12-18T01:17:33;34.20;;;16.15;;
1370;SDS011;14306;49.942;11.570;2022-12-18T01:20:02;38.05;;;16.65;;
1370;SDS011;14306;49.942;11.570;2022-12-18T01:22:31;35.13;;;15.82;;
1370;SDS011;14306;49.942;11.570;2022-12-18T01:25:00;31.98;;;15.15;;
1370;SDS011;14306;49.942;11.570;2022-12-18T01:27:30;40.15;;;16.15;;
1370;SDS011;14306;49.942;11.570;2022-12-18T01:29:58;37.13;;;14.98;;
1370;SDS011;14306;49.942;11.570;2022-12-18T01:32:26;45.28;;;15.00;;
1370;SDS011;14306;49.942;11.570;2022-12-18T01:34:57;35.63;;;15.43;;
1370;SDS011;14306;49.942;11.570;2022-12-18T01:37:25;27.00;;;13.80;;
1370;SDS011;14306;49.942;11.570;2022-12-18T01:39:53;34.10;;;15.80;;
1370;SDS011;14306;49.942;11.570;2022-12-18T01:42:23;32.08;;;14.68;;
1370;SDS011;14306;49.942;11.570;2022-12-18T01:44:57;33.90;;;16.15;;
1370;SDS011;14306;49.942;11.570;2022-12-18T01:47:50;36.15;;;14.93;;
1370;SDS011;14306;49.942;11.570;2022-12-18T01:50:22;34.70;;;14.13;;
1370;SDS011;14306;49.942;11.570;2022-12-18T01:52:54;36.88;;;14.55;;
1370;SDS011;14306;49.942;11.570;2022-12-18T01:55:26;40.42;;;17.02;;
1370;SDS011;14306;49.942;11.570;2022-12-18T01:57:59;31.05;;;14.30;;
1370;SDS011;14306;49.942;11.570;2022-12-18T02:00:27;33.13;;;14.32;;
1370;SDS011;14306;49.942;11.570;2022-12-18T02:02:56;27.75;;;12.90;;
1370;SDS011;14306;49.942;11.570;2022-12-18T02:05:29;31.52;;;15.30;;
1370;SDS011;14306;49.942;11.570;2022-12-18T02:08:07;32.88;;;14.02;;
1370;SDS011;14306;49.942;11.570;2022-12-18T02:10:43;28.73;;;13.20;;
1370;SDS011;14306;49.942;11.570;2022-12-18T02:13:19;32.38;;;14.07;;
1370;SDS011;14306;49.942;11.570;2022-12-18T02:15:54;31.38;;;13.50;;
1370;SDS011;14306;49.942;11.570;2022-12-18T02:18:30;29.45;;;14.43;;
1370;SDS011;14306;49.942;11.570;2022-12-18T02:21:07;31.05;;;14.15;;
1370;SDS011;14306;49.942;11.570;2022-12-18T02:23:47;27.98;;;13.60;;
1370;SDS011;14306;49.942;11.570;2022-12-18T02:26:26;31.25;;;16.52;;
1370;SDS011;14306;49.942;11.570;2022-12-18T02:29:00;32.05;;;12.48;;
1370;SDS011;14306;49.942;11.570;2022-12-18T02:31:32;29.33;;;12.25;;
1370;SDS011;14306;49.942;11.570;2022-12-18T02:34:07;34.58;;;13.02;;
1370;SDS011;14306;49.942;11.570;2022-12-18T02:36:38;34.03;;;12.48;;
1370;SDS011;14306;49.942;11.570;2022-12-18T02:39:09;31.67;;;14.00;;
1370;SDS011;14306;49.942;11.570;2022-12-18T02:41:41;27.70;;;13.27;;
1370;SDS011;14306;49.942;11.570;2022-12-18T02:44:10;33.67;;;14.50;;
1370;SDS011;14306;49.942;11.570;2022-12-18T02:46:40;29.30;;;15.88;;
1370;SDS011;14306;49.942;11.570;2022-12-18T02:49:12;42.55;;;13.75;;
1370;SDS011;14306;49.942;11.570;2022-12-18T02:51:50;29.50;;;13.68;;
1370;SDS011;14306;49.942;11.570;2022-12-18T02:54:28;26.30;;;11.90;;
1370;SDS011;14306;49.942;11.570;2022-12-18T02:57:19;22.38;;;12.20;;
1370;SDS011;14306;49.942;11.570;2022-12-18T02:59:58;30.13;;;13.80;;
1370;SDS011;14306;49.942;11.570;2022-12-18T03:02:33;25.98;;;12.63;;
1370;SDS011;14306;49.942;11.570;2022-12-18T03:05:09;24.15;;;12.32;;
1370;SDS011;14306;49.942;11.570;2022-12-18T03:07:42;35.55;;;14.20;;
1370;SDS011;14306;49.942;11.570;2022-12-18T03:10:16;26.67;;;10.98;;
1370;SDS011;14306;49.942;11.570;2022-12-18T03:12:52;27.35;;;12.75;;
1370;SDS011;14306;49.942;11.570;2022-12-18T03:15:24;28.25;;;11.88;;
1370;SDS011;14306;49.942;11.570;2022-12-18T03:17:59;24.17;;;11.30;;
1370;SDS011;14306;49.942;11.570;2022-12-18T03:20:32;25.80;;;10.85;;
1370;SDS011;14306;49.942;11.570;2022-12-18T03:23:04;29.05;;;12.55;;
1370;SDS011;14306;49.942;11.570;2022-12-18T03:25:37;25.88;;;12.40;;
1370;SDS011;14306;49.942;11.570;2022-12-18T03:28:12;27.27;;;12.20;;
1370;SDS011;14306;49.942;11.570;2022-12-18T03:30:43;31.00;;;12.60;;
1370;SDS011;14306;49.942;11.570;2022-12-18T03:33:15;25.92;;;13.23;;
1370;SDS011;14306;49.942;11.570;2022-12-18T03:35:46;28.77;;;11.85;;
1370;SDS011;14306;49.942;11.570;2022-12-18T03:38:14;23.40;;;11.10;;
1370;SDS011;14306;49.942;11.570;2022-12-18T03:40:50;22.30;;;10.05;;
1370;SDS011;14306;49.942;11.570;2022-12-18T03:43:30;26.70;;;13.07;;
1370;SDS011;14306;49.942;11.570;2022-12-18T03:46:06;34.88;;;12.38;;
1370;SDS011;14306;49.942;11.570;2022-12-18T03:48:41;32.20;;;12.35;;
1370;SDS011;14306;49.942;11.570;2022-12-18T03:51:13;22.98;;;11.30;;
1370;SDS011;14306;49.942;11.570;2022-12-18T03:53:47;27.05;;;13.10;;
1370;SDS011;14306;49.942;11.570;2022-12-18T03:56:19;25.25;;;11.70;;
1370;SDS011;14306;49.942;11.570;2022-12-18T03:58:51;20.45;;;10.77;;
1370;SDS011;14306;49.942;11.570;2022-12-18T04:01:22;29.13;;;11.27;;
1370;SDS011;14306;49.942;11.570;2022-12-18T04:03:56;24.42;;;11.50;;
1370;SDS011;14306;49.942;11.570;2022-12-18T04:06:26;25.85;;;13.18;;
1370;SDS011;14306;49.942;11.570;2022-12-18T04:08:57;29.60;;;12.23;;
1370;SDS011;14306;49.942;11.570;2022-12-18T04:11:25;27.42;;;12.40;;
1370;SDS011;14306;49.942;11.570;2022-12-18T04:13:56;22.02;;;10.63;;
1370;SDS011;14306;49.942;11.570;2022-12-18T04:16:31;26.05;;;10.73;;
1370;SDS011;14306;49.942;11.570;2022-12-18T04:18:58;30.58;;;13.30;;
1370;SDS011;14306;49.942;11.570;2022-12-18T04:21:27;20.10;;;10.45;;
1370;SDS011;14306;49.942;11.570;2022-12-18T04:23:54;19.50;;;10.90;;
1370;SDS011;14306;49.942;11.570;2022-12-18T04:26:22;22.52;;;11.52;;
1370;SDS011;14306;49.942;11.570;2022-12-18T04:28:50;22.13;;;10.93;;
1370;SDS011;14306;49.942;11.570;2022-12-18T04:31:19;18.10;;;10.27;;
1370;SDS011;14306;49.942;11.570;2022-12-18T04:33:49;25.77;;;11.43;;
1370;SDS011;14306;49.942;11.570;2022-12-18T04:36:16;23.95;;;10.40;;
1370;SDS011;14306;49.942;11.570;2022-12-18T04:38:45;22.45;;;9.23;;
1370;SDS011;14306;49.942;11.570;2022-12-18T04:41:12;22.05;;;11.38;;
1370;SDS011;14306;49.942;11.570;2022-12-18T04:43:40;27.45;;;10.90;;
1370;SDS011;14306;49.942;11.570;2022-12-18T04:46:08;24.85;;;11.85;;
1370;SDS011;14306;49.942;11.570;2022-12-18T04:48:38;21.52;;;10.35;;
1370;SDS011;14306;49.942;11.570;2022-12-18T04:51:06;22.48;;;10.90;;
1370;SDS011;14306;49.942;11.570;2022-12-18T04:53:34;27.70;;;11.32;;
1370;SDS011;14306;49.942;11.570;2022-12-18T04:56:04;25.17;;;10.98;;
1370;SDS011;14306;49.942;11.570;2022-12-18T04:58:33;29.80;;;12.70;;
1370;SDS011;14306;49.942;11.570;2022-12-18T05:01:00;26.42;;;11.10;;
1370;SDS011;14306;49.942;11.570;2022-12-18T05:03:29;23.85;;;10.20;;
1370;SDS011;14306;49.942;11.570;2022-12-18T05:05:59;21.63;;;10.07;;
1370;SDS011;14306;49.942;11.570;2022-12-18T05:08:27;29.73;;;10.98;;
1370;SDS011;14306;49.942;11.570;2022-12-18T05:10:58;21.70;;;11.20;;
1370;SDS011;14306;49.942;11.570;2022-12-18T05:13:27;20.98;;;10.27;;
1370;SDS011;14306;49.942;11.570;2022-12-18T05:15:55;22.63;;;10.45;;
1370;SDS011;14306;49.942;11.570;2022-12-18T05:18:24;23.85;;;10.98;;
1370;SDS011;14306;49.942;11.570;2022-12-18T05:20:52;24.23;;;11.52;;
1370;SDS011;14306;49.942;11.570;2022-12-18T05:23:23;23.77;;;11.05;;
1370;SDS011;14306;49.942;11.570;2022-12-18T05:25:52;30.70;;;10.77;;
1370;SDS011;14306;49.942;11.570;2022-12-18T05:28:21;21.60;;;11.18;;
1370;SDS011;14306;49.942;11.570;2022-12-18T05:30:50;27.90;;;11.00;;
1370;SDS011;14306;49.942;11.570;2022-12-18T05:33:20;24.08;;;11.70;;
1370;SDS011;14306;49.942;11.570;2022-12-18T05:35:50;19.85;;;10.57;;
1370;SDS011;14306;49.942;11.570;2022-12-18T05:38:18;23.25;;;11.05;;
1370;SDS011;14306;49.942;11.570;2022-12-18T05:40:48;19.08;;;10.35;;
1370;SDS011;14306;49.942;11.570;2022-12-18T05:43:17;27.90;;;12.25;;
1370;SDS011;14306;49.942;11.570;2022-12-18T05:45:47;22.58;;;11.05;;
1370;SDS011;14306;49.942;11.570;2022-12-18T05:48:16;30.30;;;12.18;;
1370;SDS011;14306;49.942;11.570;2022-12-18T05:50:45;28.40;;;10.93;;
1370;SDS011;14306;49.942;11.570;2022-12-18T05:53:14;24.83;;;11.35;;
1370;SDS011;14306;49.942;11.570;2022-12-18T05:55:43;30.23;;;11.68;;
1370;SDS011;14306;49.942;11.570;2022-12-18T05:58:13;27.50;;;11.70;;
1370;SDS011;14306;49.942;11.570;2022-12-18T06:00:42;21.08;;;11.38;;
1370;SDS011;14306;49.942;11.570;2022-12-18T06:03:12;21.25;;;12.40;;
1370;SDS011;14306;49.942;11.570;2022-12-18T06:05:43;20.75;;;10.43;;
1370;SDS011;14306;49.942;11.570;2022-12-18T06:08:12;25.60;;;10.43;;
1370;SDS011;14306;49.942;11.570;2022-12-18T06:10:41;25.45;;;10.40;;
1370;SDS011;14306;49.942;11.570;2022-12-18T06:13:09;22.48;;;10.50;;
1370;SDS011;14306;49.942;11.570;2022-12-18T06:15:38;25.15;;;12.32;;
1370;SDS011;14306;49.942;11.570;2022-12-18T06:18:06;27.25;;;11.43;;
1370;SDS011;14306;49.942;11.570;2022-12-18T06:20:33;30.58;;;13.25;;
1370;SDS011;14306;49.942;11.570;2022-12-18T06:23:03;28.63;;;12.90;;
1370;SDS011;14306;49.942;11.570;2022-12-18T06:25:31;21.67;;;9.93;;
1370;SDS011;14306;49.942;11.570;2022-12-18T06:27:59;30.42;;;12.35;;
1370;SDS011;14306;49.942;11.570;2022-12-18T06:30:26;21.92;;;10.85;;
1370;SDS011;14306;49.942;11.570;2022-12-18T06:32:56;22.65;;;11.63;;
1370;SDS011;14306;49.942;11.570;2022-12-18T06:35:23;24.92;;;11.95;;
1370;SDS011;14306;49.942;11.570;2022-12-18T06:37:52;28.30;;;11.63;;
1370;SDS011;14306;49.942;11.570;2022-12-18T06:40:19;25.23;;;11.25;;
1370;SDS011;14306;49.942;11.570;2022-12-18T06:42:48;26.92;;;11.43;;
1370;SDS011;14306;49.942;11.570;2022-12-18T06:45:15;21.80;;;10.80;;
1370;SDS011;14306;49.942;11.570;2022-12-18T06:47:43;35.38;;;12.68;;
1370;SDS011;14306;49.942;11.570;2022-12-18T06:50:12;34.25;;;12.02;;
1370;SDS011;14306;49.942;11.570;2022-12-18T06:52:40;34.47;;;12.52;;
1370;SDS011;14306;49.942;11.570;2022-12-18T06:55:10;25.88;;;12.07;;
1370;SDS011;14306;49.942;11.570;2022-12-18T06:57:38;30.35;;;10.45;;
1370;SDS011;14306;49.942;11.570;2022-12-18T07:00:06;26.33;;;11.98;;
1370;SDS011;14306;49.942;11.570;2022-12-18T07:02:35;24.27;;;11.90;;
1370;SDS011;14306;49.942;11.570;2022-12-18T07:05:03;28.45;;;12.95;;
1370;SDS011;14306;49.942;11.570;2022-12-18T07:07:37;22.48;;;10.75;;
1370;SDS011;14306;49.942;11.570;2022-12-18T07:10:05;22.02;;;11.65;;
1370;SDS011;14306;49.942;11.570;2022-12-18T07:12:33;29.85;;;11.23;;
1370;SDS011;14306;49.942;11.570;2022-12-18T07:15:01;21.85;;;11.07;;
1370;SDS011;14306;49.942;11.570;2022-12-18T07:17:30;25.02;;;10.75;;
1370;SDS011;14306;49.942;11.570;2022-12-18T07:19:58;22.60;;;10.75;;
1370;SDS011;14306;49.942;11.570;2022-12-18T07:22:26;36.28;;;11.80;;
1370;SDS011;14306;49.942;11.570;2022-12-18T07:24:55;21.70;;;12.32;;
1370;SDS011;14306;49.942;11.570;2022-12-18T07:27:23;28.30;;;10.63;;
1370;SDS011;14306;49.942;11.570;2022-12-18T07:29:51;27.95;;;11.77;;
1370;SDS011;14306;49.942;11.570;2022-12-18T07:32:19;24.20;;;10.20;;
1370;SDS011;14306;49.942;11.570;2022-12-18T07:34:47;21.30;;;10.80;;
1370;SDS011;14306;49.942;11.570;2022-12-18T07:37:15;17.85;;;9.93;;
1370;SDS011;14306;49.942;11.570;2022-12-18T07:39:42;24.08;;;11.98;;
1370;SDS011;14306;49.942;11.570;2022-12-18T07:42:14;21.30;;;10.00;;
1370;SDS011;14306;49.942;11.570;2022-12-18T07:45:01;22.52;;;11.02;;
1370;SDS011;14306;49.942;11.570;2022-12-18T07:47:30;27.35;;;9.85;;
1370;SDS011;14306;49.942;11.570;2022-12-18T07:49:58;25.15;;;11.38;;
1370;SDS011;14306;49.942;11.570;2022-12-18T07:52:26;22.20;;;11.10;;
1370;SDS011;14306;49.942;11.570;2022-12-18T07:54:54;26.17;;;10.95;;
1370;SDS011;14306;49.942;11.570;2022-12-18T07:57:23;28.85;;;11.35;;
1370;SDS011;14306;49.942;11.570;2022-12-18T08:00:11;23.17;;;11.05;;
1370;SDS011;14306;49.942;11.570;2022-12-18T08:02:40;25.20;;;11.73;;
1370;SDS011;14306;49.942;11.570;2022-12-18T08:05:08;28.27;;;11.80;;
1370;SDS011;14306;49.942;11.570;2022-12-18T08:07:36;20.55;;;10.65;;
1370;SDS011;14306;49.942;11.570;2022-12-18T08:10:04;23.83;;;11.48;;
1370;SDS011;14306;49.942;11.570;2022-12-18T08:12:35;21.60;;;10.55;;
1370;SDS011;14306;49.942;11.570;2022-12-18T08:15:03;25.70;;;12.23;;
1370;SDS011;14306;49.942;11.570;2022-12-18T08:17:31;26.42;;;11.55;;
1370;SDS011;14306;49.942;11.570;2022-12-18T08:20:00;29.08;;;11.38;;
1370;SDS011;14306;49.942;11.570;2022-12-18T08:22:29;24.38;;;10.65;;
1370;SDS011;14306;49.942;11.570;2022-12-18T08:24:56;20.25;;;10.40;;
1370;SDS011;14306;49.942;11.570;2022-12-18T08:27:24;20.70;;;10.20;;
1370;SDS011;14306;49.942;11.570;2022-12-18T08:29:57;25.85;;;10.65;;
1370;SDS011;14306;49.942;11.570;2022-12-18T08:32:25;26.63;;;10.50;;
1370;SDS011;14306;49.942;11.570;2022-12-18T08:34:54;24.27;;;9.35;;
1370;SDS011;14306;49.942;11.570;2022-12-18T08:37:22;20.58;;;10.90;;
1370;SDS011;14306;49.942;11.570;2022-12-18T08:39:50;22.60;;;10.30;;
1370;SDS011;14306;49.942;11.570;2022-12-18T08:42:20;27.33;;;9.65;;
1370;SDS011;14306;49.942;11.570;2022-12-18T08:45:08;23.95;;;10.20;;
1370;SDS011;14306;49.942;11.570;2022-12-18T08:47:36;22.13;;;9.60;;
1370;SDS011;14306;49.942;11.570;2022-12-18T08:50:04;19.92;;;9.48;;
1370;SDS011;14306;49.942;11.570;2022-12-18T08:52:33;19.63;;;8.75;;
1370;SDS011;14306;49.942;11.570;2022-12-18T08:55:01;19.42;;;9.63;;
1370;SDS011;14306;49.942;11.570;2022-12-18T08:57:29;25.25;;;9.32;;
1370;SDS011;14306;49.942;11.570;2022-12-18T08:59:57;23.23;;;10.50;;
1370;SDS011;14306;49.942;11.570;2022-12-18T09:02:26;17.73;;;9.98;;
1370;SDS011;14306;49.942;11.570;2022-12-18T09:04:54;21.13;;;10.18;;
1370;SDS011;14306;49.942;11.570;2022-12-18T09:07:23;23.98;;;10.05;;
1370;SDS011;14306;49.942;11.570;2022-12-18T09:09:51;22.00;;;9.85;;
1370;SDS011;14306;49.942;11.570;2022-12-18T09:12:19;24.17;;;9.00;;
1370;SDS011;14306;49.942;11.570;2022-12-18T09:14:47;17.58;;;9.50;;
1370;SDS011;14306;49.942;11.570;2022-12-18T09:17:15;20.33;;;10.00;;
1370;SDS011;14306;49.942;11.570;2022-12-18T09:19:44;20.67;;;10.32;;
1370;SDS011;14306;49.942;11.570;2022-12-18T09:22:12;14.82;;;9.38;;
1370;SDS011;14306;49.942;11.570;2022-12-18T09:24:40;15.73;;;7.60;;
1370;SDS011;14306;49.942;11.570;2022-12-18T09:27:08;15.10;;;8.98;;
1370;SDS011;14306;49.942;11.570;2022-12-18T09:29:36;19.77;;;9.65;;
1370;SDS011;14306;49.942;11.570;2022-12-18T09:32:05;16.63;;;10.18;;
1370;SDS011;14306;49.942;11.570;2022-12-18T09:34:33;23.27;;;10.45;;
1370;SDS011;14306;49.942;11.570;2022-12-18T09:37:05;17.95;;;9.15;;
1370;SDS011;14306;49.942;11.570;2022-12-18T09:39:33;23.20;;;10.63;;
1370;SDS011;14306;49.942;11.570;2022-12-18T09:42:01;18.30;;;8.88;;
1370;SDS011;14306;49.942;11.570;2022-12-18T09:44:30;20.33;;;10.00;;
1370;SDS011;14306;49.942;11.570;2022-12-18T09:47:11;15.02;;;8.77;;
1370;SDS011;14306;49.942;11.570;2022-12-18T09:49:44;19.55;;;10.07;;
1370;SDS011;14306;49.942;11.570;2022-12-18T09:52:16;12.88;;;9.57;;
1370;SDS011;14306;49.942;11.570;2022-12-18T09:54:48;24.77;;;9.40;;
1370;SDS011;14306;49.942;11.570;2022-12-18T09:57:20;20.00;;;9.90;;
1370;SDS011;14306;49.942;11.570;2022-12-18T09:59:51;14.98;;;9.60;;
1370;SDS011;14306;49.942;11.570;2022-12-18T10:02:24;17.95;;;8.77;;
1370;SDS011;14306;49.942;11.570;2022-12-18T10:04:58;22.75;;;8.98;;
1370;SDS011;14306;49.942;11.570;2022-12-18T10:07:37;18.25;;;8.75;;
1370;SDS011;14306;49.942;11.570;2022-12-18T10:10:14;15.27;;;8.80;;
1370;SDS011;14306;49.942;11.570;2022-12-18T10:13:01;19.55;;;8.20;;
1370;SDS011;14306;49.942;11.570;2022-12-18T10:15:36;20.13;;;10.50;;
1370;SDS011;14306;49.942;11.570;2022-12-18T10:18:14;23.70;;;8.93;;
1370;SDS011;14306;49.942;11.570;2022-12-18T10:20:49;15.93;;;8.43;;
1370;SDS011;14306;49.942;11.570;2022-12-18T10:23:22;21.17;;;9.05;;
1370;SDS011;14306;49.942;11.570;2022-12-18T10:25:57;16.33;;;8.75;;
1370;SDS011;14306;49.942;11.570;2022-12-18T10:28:30;21.95;;;9.65;;
1370;SDS011;14306;49.942;11.570;2022-12-18T10:30:58;16.83;;;8.35;;
1370;SDS011;14306;49.942;11.570;2022-12-18T10:33:28;14.75;;;8.32;;
1370;SDS011;14306;49.942;11.570;2022-12-18T10:35:58;19.73;;;8.05;;
1370;SDS011;14306;49.942;11.570;2022-12-18T10:38:28;17.13;;;8.13;;
1370;SDS011;14306;49.942;11.570;2022-12-18T10:40:58;21.00;;;8.75;;
1370;SDS011;14306;49.942;11.570;2022-12-18T10:43:28;18.23;;;8.10;;
1370;SDS011;14306;49.942;11.570;2022-12-18T10:46:04;17.92;;;9.15;;
1370;SDS011;14306;49.942;11.570;2022-12-18T10:48:52;13.95;;;7.32;;
1370;SDS011;14306;49.942;11.570;2022-12-18T10:51:22;17.85;;;7.88;;
1370;SDS011;14306;49.942;11.570;2022-12-18T10:53:59;15.82;;;9.05;;
1370;SDS011;14306;49.942;11.570;2022-12-18T10:56:33;14.13;;;7.47;;
1370;SDS011;14306;49.942;11.570;2022-12-18T10:59:03;14.75;;;8.55;;
1370;SDS011;14306;49.942;11.570;2022-12-18T11:01:45;20.95;;;9.27;;
1370;SDS011;14306;49.942;11.570;2022-12-18T11:04:19;17.73;;;9.25;;
1370;SDS011;14306;49.942;11.570;2022-12-18T11:06:52;20.30;;;9.40;;
1370;SDS011;14306;49.942;11.570;2022-12-18T11:09:29;18.30;;;9.70;;
1370;SDS011;14306;49.942;11.570;2022-12-18T11:11:59;14.95;;;9.73;;
1370;SDS011;14306;49.942;11.570;2022-12-18T11:14:29;19.00;;;9.60;;
1370;SDS011;14306;49.942;11.570;2022-12-18T11:17:00;20.13;;;9.65;;
1370;SDS011;14306;49.942;11.570;2022-12-18T11:19:52;17.58;;;7.90;;
1370;SDS011;14306;49.942;11.570;2022-12-18T11:22:23;16.02;;;8.55;;
1370;SDS011;14306;49.942;11.570;2022-12-18T11:24:56;18.38;;;10.50;;
1370;SDS011;14306;49.942;11.570;2022-12-18T11:27:49;13.93;;;8.15;;
1370;SDS011;14306;49.942;11.570;2022-12-18T11:30:22;16.05;;;8.95;;
1370;SDS011;14306;49.942;11.570;2022-12-18T11:32:53;20.52;;;9.70;;
1370;SDS011;14306;49.942;11.570;2022-12-18T11:35:28;40.83;;;8.93;;
1370;SDS011;14306;49.942;11.570;2022-12-18T11:38:06;20.42;;;9.85;;
1370;SDS011;14306;49.942;11.570;2022-12-18T11:40:47;16.52;;;8.50;;
1370;SDS011;14306;49.942;11.570;2022-12-18T11:43:22;21.23;;;8.13;;
1370;SDS011;14306;49.942;11.570;2022-12-18T11:45:56;19.15;;;9.13;;
1370;SDS011;14306;49.942;11.570;2022-12-18T11:48:29;18.38;;;9.95;;
1370;SDS011;14306;49.942;11.570;2022-12-18T11:51:01;16.63;;;8.98;;
1370;SDS011;14306;49.942;11.570;2022-12-18T11:53:32;17.08;;;8.27;;
1370;SDS011;14306;49.942;11.570;2022-12-18T11:56:11;16.10;;;9.40;;
1370;SDS011;14306;49.942;11.570;2022-12-18T11:58:55;16.08;;;9.50;;
1370;SDS011;14306;49.942;11.570;2022-12-18T12:01:35;20.35;;;9.60;;
1370;SDS011;14306;49.942;11.570;2022-12-18T12:07:30;17.52;;;8.65;;
1370;SDS011;14306;49.942;11.570;2022-12-18T12:10:09;17.40;;;9.93;;
1370;SDS011;14306;49.942;11.570;2022-12-18T12:12:57;15.07;;;8.15;;
1370;SDS011;14306;49.942;11.570;2022-12-18T12:15:38;17.02;;;7.97;;
1370;SDS011;14306;49.942;11.570;2022-12-18T12:18:17;14.90;;;8.95;;
1370;SDS011;14306;49.942;11.570;2022-12-18T12:20:53;15.10;;;8.77;;
1370;SDS011;14306;49.942;11.570;2022-12-18T12:23:32;16.83;;;9.98;;
1370;SDS011;14306;49.942;11.570;2022-12-18T12:26:07;22.70;;;9.95;;
1370;SDS011;14306;49.942;11.570;2022-12-18T12:28:48;18.58;;;8.48;;
1370;SDS011;14306;49.942;11.570;2022-12-18T12:31:29;19.25;;;9.73;;
1370;SDS011;14306;49.942;11.570;2022-12-18T12:34:12;14.35;;;7.78;;
1370;SDS011;14306;49.942;11.570;2022-12-18T12:36:50;12.57;;;7.60;;
1370;SDS011;14306;49.942;11.570;2022-12-18T12:39:31;15.30;;;8.38;;
1370;SDS011;14306;49.942;11.570;2022-12-18T12:42:03;16.73;;;9.10;;
1370;SDS011;14306;49.942;11.570;2022-12-18T12:44:53;17.85;;;8.48;;
1370;SDS011;14306;49.942;11.570;2022-12-18T12:47:25;25.35;;;10.88;;
1370;SDS011;14306;49.942;11.570;2022-12-18T12:49:58;19.25;;;8.32;;
1370;SDS011;14306;49.942;11.570;2022-12-18T12:52:31;17.05;;;9.70;;
1370;SDS011;14306;49.942;11.570;2022-12-18T12:55:02;16.20;;;10.20;;
1370;SDS011;14306;49.942;11.570;2022-12-18T12:57:40;16.50;;;8.50;;
1370;SDS011;14306;49.942;11.570;2022-12-18T13:00:16;14.07;;;7.68;;
1370;SDS011;14306;49.942;11.570;2022-12-18T13:02:47;17.40;;;8.85;;
1370;SDS011;14306;49.942;11.570;2022-12-18T13:05:21;17.90;;;8.48;;
1370;SDS011;14306;49.942;11.570;2022-12-18T13:07:56;16.10;;;8.32;;
1370;SDS011;14306;49.942;11.570;2022-12-18T13:10:33;12.00;;;6.97;;
1370;SDS011;14306;49.942;11.570;2022-12-18T13:13:03;12.20;;;7.03;;
1370;SDS011;14306;49.942;11.570;2022-12-18T13:15:38;10.75;;;7.38;;
1370;SDS011;14306;49.942;11.570;2022-12-18T13:18:11;14.52;;;8.02;;
1370;SDS011;14306;49.942;11.570;2022-12-18T13:20:43;11.20;;;6.55;;
1370;SDS011;14306;49.942;11.570;2022-12-18T13:23:31;11.77;;;6.95;;
1370;SDS011;14306;49.942;11.570;2022-12-18T13:29:00;14.65;;;6.80;;
1370;SDS011;14306;49.942;11.570;2022-12-18T13:34:47;13.45;;;7.95;;
1370;SDS011;14306;49.942;11.570;2022-12-18T13:43:27;17.35;;;8.73;;
1370;SDS011;14306;49.942;11.570;2022-12-18T13:46:05;14.40;;;7.90;;
1370;SDS011;14306;49.942;11.570;2022-12-18T13:48:50;16.23;;;8.48;;
1370;SDS011;14306;49.942;11.570;2022-12-18T13:51:21;17.70;;;9.27;;
1370;SDS011;14306;49.942;11.570;2022-12-18T13:53:51;15.20;;;8.93;;
1370;SDS011;14306;49.942;11.570;2022-12-18T13:56:22;17.55;;;9.13;;
1370;SDS011;14306;49.942;11.570;2022-12-18T13:59:05;19.08;;;9.90;;
1370;SDS011;14306;49.942;11.570;2022-12-18T14:01:46;23.00;;;9.32;;
1370;SDS011;14306;49.942;11.570;2022-12-18T14:04:19;22.50;;;9.50;;
1370;SDS011;14306;49.942;11.570;2022-12-18T14:06:53;13.45;;;7.95;;
1370;SDS011;14306;49.942;11.570;2022-12-18T14:09:26;13.45;;;7.75;;
1370;SDS011;14306;49.942;11.570;2022-12-18T14:11:57;16.05;;;8.40;;
1370;SDS011;14306;49.942;11.570;2022-12-18T14:14:41;16.63;;;9.15;;
1370;SDS011;14306;49.942;11.570;2022-12-18T14:17:11;15.93;;;8.48;;
1370;SDS011;14306;49.942;11.570;2022-12-18T14:19:42;21.83;;;9.27;;
1370;SDS011;14306;49.942;11.570;2022-12-18T14:22:14;14.73;;;8.15;;
1370;SDS011;14306;49.942;11.570;2022-12-18T14:24:43;16.40;;;8.57;;
1370;SDS011;14306;49.942;11.570;2022-12-18T14:27:12;16.20;;;8.45;;
1370;SDS011;14306;49.942;11.570;2022-12-18T14:29:48;19.90;;;10.20;;
1370;SDS011;14306;49.942;11.570;2022-12-18T14:32:17;17.23;;;9.45;;
1370;SDS011;14306;49.942;11.570;2022-12-18T14:34:48;15.80;;;7.70;;
1370;SDS011;14306;49.942;11.570;2022-12-18T14:37:19;18.08;;;8.93;;
1370;SDS011;14306;49.942;11.570;2022-12-18T14:39:53;16.15;;;8.85;;
1370;SDS011;14306;49.942;11.570;2022-12-18T14:42:24;20.60;;;10.07;;
1370;SDS011;14306;49.942;11.570;2022-12-18T14:48:07;16.45;;;10.07;;
1370;SDS011;14306;49.942;11.570;2022-12-18T14:50:42;19.85;;;9.65;;
1370;SDS011;14306;49.942;11.570;2022-12-18T14:53:18;14.93;;;8.75;;
1370;SDS011;14306;49.942;11.570;2022-12-18T14:55:50;20.38;;;10.35;;
1370;SDS011;14306;49.942;11.570;2022-12-18T14:58:18;21.25;;;10.82;;
1370;SDS011;14306;49.942;11.570;2022-12-18T15:00:47;17.38;;;9.65;;
1370;SDS011;14306;49.942;11.570;2022-12-18T15:03:16;17.33;;;9.90;;
1370;SDS011;14306;49.942;11.570;2022-12-18T15:05:48;18.98;;;10.57;;
1370;SDS011;14306;49.942;11.570;2022-12-18T15:08:29;16.60;;;10.20;;
1370;SDS011;14306;49.942;11.570;2022-12-18T15:11:02;17.52;;;9.57;;